Wiggins, CO (80654)

9:57 PM MST on January 28, 2015 (GMT -0700)
CODOT | Change Station
CLOSE
Current Station
Personal Weather Station
Location: Wiggins, CO
Elevation: 4498 ft
Nearby Weather Stations

Elev 4498 ft 40.08 °N, 104.00 °W | Updated 2 days ago

Partly Cloudy
Partly Cloudy
43 °F
Feels Like 43 °F
N
11
Wind Variable Wind from NNW
Gusts 17 mph

Today
High -- | Low -- °F
--% Chance of Precip.
Yesterday
High -- | Low -- °F
Precip. -- in
7:08 AM 5:09 PM
Waxing Gibbous, 71% visible
Pressure 30.25 in
Visibility 10.0 miles
Clouds Scattered Clouds 9000 ft
Dew Point 28 °F
Humidity 58%
Rainfall -999.00 in
Snow Depth Not available.
UV 0 out of 12
Pollen 2.20 out of 12
Air Quality Not available.
Flu Activity Not available.
METAR KFMM 290435Z AUTO 35017KT 10SM SCT090 06/M01 A3025 RMK AO2 T00561015

More Conditions Fewer Conditions

Pressure 30.25 in
Visibility 10.0 miles
Clouds Scattered Clouds 9000 ft
Dew Point 28 °F
Humidity 58%
Rainfall -999.00 in
Snow Depth Not available.
UV 0 out of 12
Pollen 2.20 out of 12
Air Quality Not available.
Flu Activity Not available.
METAR KFMM 290435Z AUTO 35017KT 10SM SCT090 06/M01 A3025 RMK AO2 T00561015

More Conditions Fewer Conditions

10-Day Weather Forecast

Almanac

Astronomy

Jan. 28, 2015 Rise Set
Actual Time
Civil Twilight
Nautical Twilight
Astronomical Twilight
Moon
Length of Visible Light
Length of Day
Tomorrow will be .
, % of the Moon is Illuminated

Today's Extremes

State Highs State Lows

Community

WunderPhotos

Upload Photos

1,791,350 photos uploaded!

WunderBlogs® & News

Nearby

Air Quality

  Air Quality AQ Index Pollutant
Not available.

Snow Depth

Station Depth Elevation

Earthquake Activity

City Distance Mag. Time & Date
Minimum magnitude displayed is 2.5.

Coastal Water Temperatures

Place Temperature

Nearby Weather Stations